createdAt,value
2023-03-22T00:00:50.853Z,11.93
2023-03-22T00:03:19.819Z,9.82
2023-03-22T00:05:52.866Z,11.07
2023-03-22T00:08:22.806Z,9.55
2023-03-22T00:10:54.551Z,12.27
2023-03-22T00:13:23.463Z,11.60
2023-03-22T00:15:53.438Z,12.40
2023-03-22T00:18:22.961Z,11.07
2023-03-22T00:20:54.549Z,10.57
2023-03-22T00:23:23.618Z,11.52
2023-03-22T00:25:52.591Z,10.48
2023-03-22T00:28:21.664Z,11.60
2023-03-22T00:30:55.390Z,9.68
2023-03-22T00:33:24.593Z,9.05
2023-03-22T00:35:58.729Z,9.07
2023-03-22T00:38:42.127Z,10.55
2023-03-22T00:41:13.673Z,11.98
2023-03-22T00:43:42.991Z,10.13
2023-03-22T00:46:12.616Z,12.15
2023-03-22T00:48:41.939Z,13.77
2023-03-22T00:51:12.094Z,12.85
2023-03-22T00:53:43.269Z,11.95
2023-03-22T00:56:14.033Z,12.07
2023-03-22T00:58:43.325Z,12.95
2023-03-22T01:01:14.208Z,11.75
2023-03-22T01:03:43.438Z,12.57
2023-03-22T01:06:13.702Z,11.85
2023-03-22T01:08:42.020Z,14.32
2023-03-22T01:11:11.783Z,14.55
2023-03-22T01:13:41.902Z,17.38
2023-03-22T01:16:11.821Z,13.38
2023-03-22T01:18:40.895Z,13.45
2023-03-22T01:21:09.855Z,15.43
2023-03-22T01:23:40.384Z,12.55
2023-03-22T01:26:08.876Z,13.60
2023-03-22T01:28:37.690Z,10.80
2023-03-22T01:31:06.795Z,12.75
2023-03-22T01:33:35.924Z,11.68
2023-03-22T01:36:04.681Z,13.00
2023-03-22T01:38:33.525Z,12.55
2023-03-22T01:41:03.524Z,12.27
2023-03-22T01:43:32.516Z,11.75
2023-03-22T01:46:01.361Z,12.50
2023-03-22T01:48:34.249Z,12.00
2023-03-22T01:51:07.873Z,11.38
2023-03-22T01:53:39.919Z,10.82
2023-03-22T01:56:12.065Z,13.13
2023-03-22T01:58:41.744Z,10.65
2023-03-22T02:01:11.313Z,11.57
2023-03-22T02:03:46.520Z,12.35
2023-03-22T02:06:15.096Z,10.80
2023-03-22T02:08:43.486Z,11.70
2023-03-22T02:11:17.067Z,10.98
2023-03-22T02:14:03.773Z,13.15
2023-03-22T02:16:42.475Z,12.73
2023-03-22T02:19:32.617Z,10.55
2023-03-22T02:22:58.109Z,12.18
2023-03-22T02:25:53.681Z,12.77
2023-03-22T02:28:40.850Z,11.67
2023-03-22T02:31:48.012Z,11.07
2023-03-22T02:34:59.330Z,12.32
2023-03-22T02:38:03.615Z,12.13
2023-03-22T02:40:37.040Z,13.02
2023-03-22T02:43:16.693Z,12.00
2023-03-22T02:45:51.733Z,11.30
2023-03-22T02:48:28.973Z,11.05
2023-03-22T02:51:01.978Z,13.43
2023-03-22T02:53:35.067Z,11.10
2023-03-22T02:56:10.885Z,13.13
2023-03-22T02:58:46.074Z,11.90
2023-03-22T03:01:20.099Z,9.98
2023-03-22T03:03:51.530Z,11.45
2023-03-22T03:06:25.894Z,12.55
2023-03-22T03:08:58.011Z,11.73
2023-03-22T03:11:27.906Z,13.18
2023-03-22T03:13:56.864Z,10.73
2023-03-22T03:16:28.543Z,13.43
2023-03-22T03:19:03.023Z,14.50
2023-03-22T03:21:37.553Z,16.95
2023-03-22T03:24:22.330Z,14.07
2023-03-22T03:26:59.140Z,14.05
2023-03-22T03:32:06.549Z,17.55
2023-03-22T03:34:42.201Z,19.35
2023-03-22T03:37:15.156Z,16.95
2023-03-22T03:39:49.687Z,16.60
2023-03-22T03:42:20.866Z,16.92
2023-03-22T03:44:50.110Z,15.40
2023-03-22T03:47:19.807Z,18.02
2023-03-22T03:49:48.738Z,23.75
2023-03-22T03:52:17.630Z,17.00
2023-03-22T03:54:46.363Z,15.43
2023-03-22T03:57:16.715Z,18.05
2023-03-22T03:59:47.651Z,18.05
2023-03-22T04:02:16.741Z,17.30
2023-03-22T04:04:45.551Z,14.98
2023-03-22T04:07:13.850Z,16.48
2023-03-22T04:09:42.649Z,15.25
2023-03-22T04:12:11.613Z,17.17
2023-03-22T04:14:40.113Z,17.52
2023-03-22T04:17:10.801Z,17.25
2023-03-22T04:19:39.663Z,18.27
2023-03-22T04:22:14.891Z,17.45
2023-03-22T04:24:43.358Z,17.65
2023-03-22T04:27:12.029Z,18.15
2023-03-22T04:29:40.647Z,17.58
2023-03-22T04:32:11.236Z,17.80
2023-03-22T04:34:40.246Z,18.40
2023-03-22T04:37:08.759Z,17.23
2023-03-22T04:39:37.635Z,20.00
2023-03-22T04:42:06.226Z,21.83
2023-03-22T04:44:34.623Z,17.88
2023-03-22T04:47:03.471Z,19.98
2023-03-22T04:49:33.654Z,18.00
2023-03-22T04:52:02.984Z,16.83
2023-03-22T04:54:31.802Z,19.50
2023-03-22T04:57:01.071Z,16.85
2023-03-22T04:59:29.864Z,16.65
2023-03-22T05:01:58.707Z,13.77
2023-03-22T05:04:27.479Z,25.38
2023-03-22T05:06:57.749Z,18.38
2023-03-22T05:09:26.573Z,21.75
2023-03-22T05:11:55.020Z,21.67
2023-03-22T05:14:23.826Z,21.17
2023-03-22T05:16:52.249Z,19.92
2023-03-22T05:19:22.443Z,24.08
2023-03-22T05:21:58.039Z,21.17
2023-03-22T05:24:28.507Z,23.58
2023-03-22T05:27:01.809Z,21.95
2023-03-22T05:29:36.870Z,20.48
2023-03-22T05:32:05.844Z,21.23
2023-03-22T05:34:36.900Z,24.55
2023-03-22T05:37:05.492Z,18.83
2023-03-22T05:39:35.857Z,19.27
2023-03-22T05:42:04.661Z,16.90
2023-03-22T05:44:35.455Z,17.42
2023-03-22T05:47:07.120Z,22.38
2023-03-22T05:49:35.861Z,20.40
2023-03-22T05:52:07.227Z,22.20
2023-03-22T05:54:37.243Z,21.67
2023-03-22T05:57:05.774Z,22.48
2023-03-22T05:59:34.659Z,24.08
2023-03-22T06:02:02.866Z,20.02
2023-03-22T06:04:31.413Z,18.35
2023-03-22T06:07:00.006Z,22.02
2023-03-22T06:09:28.132Z,31.63
2023-03-22T06:11:57.654Z,26.40
2023-03-22T06:14:26.482Z,24.48
2023-03-22T06:16:54.941Z,22.92
2023-03-22T06:19:23.997Z,23.88
2023-03-22T06:21:52.992Z,22.98
2023-03-22T06:24:21.320Z,24.80
2023-03-22T06:26:50.040Z,19.17
2023-03-22T06:29:19.892Z,18.00
2023-03-22T06:31:48.317Z,17.70
2023-03-22T06:34:16.747Z,15.98
2023-03-22T06:36:45.479Z,14.85
2023-03-22T06:39:14.046Z,12.80
2023-03-22T06:41:42.665Z,12.35
2023-03-22T06:44:11.248Z,14.73
2023-03-22T06:46:40.915Z,12.50
2023-03-22T06:49:09.056Z,12.73
2023-03-22T06:51:37.427Z,15.85
2023-03-22T06:54:06.157Z,12.82
2023-03-22T06:56:34.791Z,14.25
2023-03-22T06:59:03.423Z,13.27
2023-03-22T07:01:31.493Z,13.65
2023-03-22T07:04:01.287Z,14.23
2023-03-22T07:06:30.733Z,15.32
2023-03-22T07:08:58.812Z,15.43
2023-03-22T07:11:27.114Z,12.93
2023-03-22T07:13:56.734Z,14.73
2023-03-22T07:16:25.459Z,13.45
2023-03-22T07:18:54.255Z,15.32
2023-03-22T07:21:24.506Z,12.18
2023-03-22T07:23:52.801Z,12.00
2023-03-22T07:26:21.708Z,13.77
2023-03-22T07:28:50.411Z,12.70
2023-03-22T07:31:19.270Z,11.95
2023-03-22T07:33:48.325Z,10.20
2023-03-22T07:36:16.677Z,9.85
2023-03-22T07:38:46.616Z,11.23
2023-03-22T07:41:15.209Z,11.20
2023-03-22T07:43:54.045Z,10.82
2023-03-22T07:46:25.266Z,10.63
2023-03-22T07:48:53.833Z,9.38
2023-03-22T07:51:22.947Z,8.10
2023-03-22T07:53:53.606Z,9.27
2023-03-22T07:56:21.721Z,8.57
2023-03-22T07:58:50.059Z,8.63
2023-03-22T08:01:18.447Z,8.05
2023-03-22T08:03:47.042Z,8.98
2023-03-22T08:06:16.454Z,10.52
2023-03-22T08:08:44.722Z,9.15
2023-03-22T08:11:14.760Z,10.02
2023-03-22T08:13:43.409Z,8.88
2023-03-22T08:16:12.291Z,12.27
2023-03-22T08:18:40.710Z,10.35
2023-03-22T08:21:09.278Z,12.38
2023-03-22T08:23:42.028Z,8.75
2023-03-22T08:26:10.722Z,9.50
2023-03-22T08:28:40.473Z,7.70
2023-03-22T08:31:13.922Z,9.05
2023-03-22T08:33:43.522Z,8.43
2023-03-22T08:36:13.456Z,7.75
2023-03-22T08:38:46.087Z,6.95
2023-03-22T08:41:16.044Z,6.30
2023-03-22T08:43:46.520Z,7.03
2023-03-22T08:46:14.660Z,8.38
2023-03-22T08:48:50.492Z,7.90
2023-03-22T08:51:19.406Z,6.88
2023-03-22T08:53:48.242Z,7.15
2023-03-22T08:56:19.613Z,6.63
2023-03-22T08:58:53.032Z,7.45
2023-03-22T09:01:21.540Z,7.35
2023-03-22T09:03:50.489Z,7.68
2023-03-22T09:06:18.849Z,8.35
2023-03-22T09:08:47.404Z,7.40
2023-03-22T09:11:17.893Z,7.70
2023-03-22T09:13:47.075Z,8.00
2023-03-22T09:16:17.386Z,7.68
2023-03-22T09:18:46.794Z,6.63
2023-03-22T09:21:16.374Z,6.18
2023-03-22T09:23:47.985Z,7.82
2023-03-22T09:26:16.774Z,6.57
2023-03-22T09:28:46.941Z,6.28
2023-03-22T09:31:20.224Z,7.43
2023-03-22T09:33:49.270Z,8.68
2023-03-22T09:36:18.693Z,7.43
2023-03-22T09:38:47.618Z,7.38
2023-03-22T09:41:22.404Z,6.57
2023-03-22T09:43:55.118Z,6.28
2023-03-22T09:46:31.826Z,7.03
2023-03-22T09:49:03.157Z,5.97
2023-03-22T09:51:41.201Z,6.90
2023-03-22T09:54:19.921Z,6.55
2023-03-22T09:56:52.821Z,7.63
2023-03-22T09:59:27.271Z,6.40
2023-03-22T10:02:01.855Z,6.95
2023-03-22T10:04:47.378Z,7.22
2023-03-22T10:07:27.259Z,9.60
2023-03-22T10:10:05.906Z,6.43
2023-03-22T10:12:42.386Z,7.10
2023-03-22T10:15:15.867Z,6.18
2023-03-22T10:17:49.702Z,6.15
2023-03-22T10:20:33.982Z,8.15
2023-03-22T10:23:05.669Z,7.15
2023-03-22T10:25:38.248Z,7.13
2023-03-22T10:28:17.527Z,6.55
2023-03-22T10:30:53.552Z,6.57
2023-03-22T10:33:32.567Z,5.93
2023-03-22T10:36:06.025Z,6.13
2023-03-22T10:38:38.780Z,6.38
2023-03-22T10:41:10.327Z,6.85
2023-03-22T10:43:40.730Z,6.22
2023-03-22T10:46:17.883Z,6.75
2023-03-22T10:48:51.408Z,5.80
2023-03-22T10:51:27.568Z,5.78
2023-03-22T10:53:58.253Z,5.97
2023-03-22T10:56:27.311Z,7.10
2023-03-22T10:58:57.274Z,5.88
2023-03-22T11:01:31.632Z,6.50
2023-03-22T11:04:09.671Z,7.22
2023-03-22T11:06:44.344Z,8.15
2023-03-22T11:09:16.833Z,6.65
2023-03-22T11:11:51.652Z,5.60
2023-03-22T11:14:26.428Z,6.35
2023-03-22T11:16:59.786Z,6.97
2023-03-22T11:19:34.961Z,5.65
2023-03-22T11:22:05.992Z,6.45
2023-03-22T11:24:36.327Z,6.15
2023-03-22T11:27:06.984Z,5.55
2023-03-22T11:29:42.326Z,6.03
2023-03-22T11:32:24.387Z,5.47
2023-03-22T11:35:03.434Z,6.63
2023-03-22T11:37:32.406Z,5.55
2023-03-22T11:40:05.121Z,6.85
2023-03-22T11:42:35.843Z,5.88
2023-03-22T11:45:04.909Z,8.23
2023-03-22T11:47:42.245Z,6.80
2023-03-22T11:50:31.116Z,5.57
2023-03-22T11:53:04.239Z,7.07
2023-03-22T11:55:33.149Z,6.63
2023-03-22T11:58:07.720Z,5.70
2023-03-22T12:00:40.068Z,6.47
2023-03-22T12:03:14.884Z,5.82
2023-03-22T12:05:50.115Z,6.50
2023-03-22T12:08:27.168Z,6.57
2023-03-22T12:11:00.297Z,6.43
2023-03-22T12:13:40.924Z,6.30
2023-03-22T12:16:14.539Z,5.63
2023-03-22T12:18:49.149Z,6.05
2023-03-22T12:21:19.765Z,8.13
2023-03-22T12:23:48.171Z,7.55
2023-03-22T12:26:20.756Z,7.05
2023-03-22T12:28:55.662Z,7.32
2023-03-22T12:31:29.029Z,7.15
2023-03-22T12:34:00.473Z,7.25
2023-03-22T12:36:37.005Z,6.72
2023-03-22T12:39:10.583Z,6.72
2023-03-22T12:41:41.393Z,8.23
2023-03-22T12:44:28.227Z,7.25
2023-03-22T12:46:59.896Z,6.78
2023-03-22T12:49:35.934Z,6.88
2023-03-22T12:54:42.212Z,7.90
2023-03-22T12:57:12.038Z,10.45
2023-03-22T12:59:45.831Z,8.23
2023-03-22T13:02:18.175Z,6.65
2023-03-22T13:04:55.012Z,7.07
2023-03-22T13:07:38.408Z,6.47
2023-03-22T13:10:56.208Z,8.90
2023-03-22T13:13:41.817Z,7.65
2023-03-22T13:16:22.911Z,7.88
2023-03-22T13:19:02.041Z,9.48
2023-03-22T13:21:33.614Z,7.50
2023-03-22T13:24:22.438Z,7.18
2023-03-22T13:26:53.192Z,7.20
2023-03-22T13:29:24.786Z,8.90
2023-03-22T13:31:59.033Z,7.30
2023-03-22T13:34:37.621Z,8.32
2023-03-22T13:37:12.074Z,7.32
2023-03-22T13:39:46.558Z,7.57
2023-03-22T13:42:21.777Z,8.00
2023-03-22T13:44:58.690Z,9.23
2023-03-22T13:47:37.157Z,7.13
2023-03-22T13:50:14.029Z,6.93
2023-03-22T13:52:47.566Z,7.82
2023-03-22T13:55:41.349Z,6.78
2023-03-22T13:58:33.084Z,5.35
2023-03-22T14:01:02.863Z,7.43
2023-03-22T14:03:34.943Z,6.20
2023-03-22T14:06:20.775Z,6.13
2023-03-22T14:08:53.406Z,6.53
2023-03-22T14:11:28.371Z,7.13
2023-03-22T14:14:02.220Z,6.32
2023-03-22T14:16:41.738Z,8.02
2023-03-22T14:19:18.896Z,5.47
